Alma Lake, Indiana
Current Conditions -  °F | °C
As of 3:53 PM on Wednesday 26 Nov 2014 (Local Time) from KHUF Reporting Station
Clear Clear  
Wind Chill:   Ceiling: Unl
Heat Index:   Visibility: 10mi
Dew Point: -4°   Wind: 0mph
Humidity: 62%   Direction: NA
Pressure: 30.05"   Gusts: NA
Location:  39.5158°N, 87.1262°W
Report Text: KHUF 262053Z 00000KT 10SM CLR 02/M04 A3005 RMK AO2 SLP183 T00221044 55016
Loading
Personal Weather Stations






























Interactive Weather Map New forecast layout! Learn more

10-Day Weather Forecast

Advertisements
Track Severe Weather on mobile